sensor_id;sensor_type;location;lat;lon;timestamp;pressure;altitude;pressure_sealevel;temperature;humidity
43312;BME280;30041;48.300;16.352;2022-07-05T00:02:12;99751.53;;;24.62;57.53
43312;BME280;30041;48.300;16.352;2022-07-05T00:04:38;99741.00;;;24.66;57.84
43312;BME280;30041;48.300;16.352;2022-07-05T00:07:03;99740.22;;;24.65;57.66
43312;BME280;30041;48.300;16.352;2022-07-05T00:09:29;99742.88;;;24.60;57.71
43312;BME280;30041;48.300;16.352;2022-07-05T00:11:55;99742.88;;;24.60;57.36
43312;BME280;30041;48.300;16.352;2022-07-05T00:14:20;99738.50;;;24.59;57.57
43312;BME280;30041;48.300;16.352;2022-07-05T00:16:46;99731.50;;;24.63;57.38
43312;BME280;30041;48.300;16.352;2022-07-05T00:19:11;99725.53;;;24.61;57.40
43312;BME280;30041;48.300;16.352;2022-07-05T00:21:37;99730.38;;;24.59;57.09
43312;BME280;30041;48.300;16.352;2022-07-05T00:24:02;99720.09;;;24.61;56.97
43312;BME280;30041;48.300;16.352;2022-07-05T00:26:28;99722.28;;;24.64;57.23
43312;BME280;30041;48.300;16.352;2022-07-05T00:28:53;99718.50;;;24.60;56.78
43312;BME280;30041;48.300;16.352;2022-07-05T00:31:19;99715.22;;;24.58;57.10
43312;BME280;30041;48.300;16.352;2022-07-05T00:33:44;99713.06;;;24.60;56.89
43312;BME280;30041;48.300;16.352;2022-07-05T00:36:09;99714.94;;;24.60;56.87
43312;BME280;30041;48.300;16.352;2022-07-05T00:38:35;99709.78;;;24.58;56.65
43312;BME280;30041;48.300;16.352;2022-07-05T00:41:00;99709.47;;;24.55;56.85
43312;BME280;30041;48.300;16.352;2022-07-05T00:43:25;99713.53;;;24.52;57.18
43312;BME280;30041;48.300;16.352;2022-07-05T00:45:51;99720.56;;;24.53;56.84
43312;BME280;30041;48.300;16.352;2022-07-05T00:48:16;99725.22;;;24.58;56.79
43312;BME280;30041;48.300;16.352;2022-07-05T00:50:42;99729.78;;;24.52;56.78
43312;BME280;30041;48.300;16.352;2022-07-05T00:53:08;99731.97;;;24.55;56.58
43312;BME280;30041;48.300;16.352;2022-07-05T00:55:34;99733.53;;;24.51;56.73
43312;BME280;30041;48.300;16.352;2022-07-05T00:57:59;99737.13;;;24.57;56.52
43312;BME280;30041;48.300;16.352;2022-07-05T01:00:25;99742.81;;;24.55;56.50
43312;BME280;30041;48.300;16.352;2022-07-05T01:02:51;99743.06;;;24.54;56.92
43312;BME280;30041;48.300;16.352;2022-07-05T01:05:16;99736.31;;;24.56;56.40
43312;BME280;30041;48.300;16.352;2022-07-05T01:07:42;99741.75;;;24.56;56.49
43312;BME280;30041;48.300;16.352;2022-07-05T01:10:08;99742.22;;;24.53;56.67
43312;BME280;30041;48.300;16.352;2022-07-05T01:12:33;99742.00;;;24.55;56.34
43312;BME280;30041;48.300;16.352;2022-07-05T01:14:59;99743.63;;;24.56;56.47
43312;BME280;30041;48.300;16.352;2022-07-05T01:17:24;99748.78;;;24.57;56.48
43312;BME280;30041;48.300;16.352;2022-07-05T01:19:50;99752.31;;;24.58;56.36
43312;BME280;30041;48.300;16.352;2022-07-05T01:22:18;99750.44;;;24.58;56.11
43312;BME280;30041;48.300;16.352;2022-07-05T01:24:49;99745.50;;;24.55;56.38
43312;BME280;30041;48.300;16.352;2022-07-05T01:27:15;99747.16;;;24.56;56.21
43312;BME280;30041;48.300;16.352;2022-07-05T01:29:42;99738.75;;;24.58;56.02
43312;BME280;30041;48.300;16.352;2022-07-05T01:32:07;99741.41;;;24.53;56.24
43312;BME280;30041;48.300;16.352;2022-07-05T01:34:39;99743.88;;;24.54;56.03
43312;BME280;30041;48.300;16.352;2022-07-05T01:37:05;99733.06;;;24.54;56.03
43312;BME280;30041;48.300;16.352;2022-07-05T01:39:31;99727.88;;;24.53;56.33
43312;BME280;30041;48.300;16.352;2022-07-05T01:41:57;99723.84;;;24.55;55.86
43312;BME280;30041;48.300;16.352;2022-07-05T01:44:23;99724.13;;;24.54;55.92
43312;BME280;30041;48.300;16.352;2022-07-05T01:46:58;99718.94;;;24.52;55.95
43312;BME280;30041;48.300;16.352;2022-07-05T01:49:24;99720.84;;;24.52;55.89
43312;BME280;30041;48.300;16.352;2022-07-05T01:51:55;99724.91;;;24.54;55.91
43312;BME280;30041;48.300;16.352;2022-07-05T01:54:23;99718.63;;;24.49;56.09
43312;BME280;30041;48.300;16.352;2022-07-05T01:56:48;99720.00;;;24.51;55.97
43312;BME280;30041;48.300;16.352;2022-07-05T01:59:14;99715.66;;;24.50;55.96
43312;BME280;30041;48.300;16.352;2022-07-05T02:01:39;99709.16;;;24.51;55.80
43312;BME280;30041;48.300;16.352;2022-07-05T02:04:07;99710.75;;;24.47;55.96
43312;BME280;30041;48.300;16.352;2022-07-05T02:06:33;99710.25;;;24.50;56.31
43312;BME280;30041;48.300;16.352;2022-07-05T02:09:00;99714.84;;;24.50;56.00
43312;BME280;30041;48.300;16.352;2022-07-05T02:11:25;99714.56;;;24.51;55.97
43312;BME280;30041;48.300;16.352;2022-07-05T02:13:51;99728.13;;;24.51;55.88
43312;BME280;30041;48.300;16.352;2022-07-05T02:16:17;99734.09;;;24.53;55.89
43312;BME280;30041;48.300;16.352;2022-07-05T02:18:42;99740.63;;;24.52;56.10
43312;BME280;30041;48.300;16.352;2022-07-05T02:21:07;99743.88;;;24.54;55.94
43312;BME280;30041;48.300;16.352;2022-07-05T02:23:33;99746.19;;;24.45;56.22
43312;BME280;30041;48.300;16.352;2022-07-05T02:25:58;99748.66;;;24.47;55.76
43312;BME280;30041;48.300;16.352;2022-07-05T02:28:24;99752.44;;;24.46;55.90
43312;BME280;30041;48.300;16.352;2022-07-05T02:30:49;99752.44;;;24.46;55.99
43312;BME280;30041;48.300;16.352;2022-07-05T02:33:15;99761.88;;;24.43;55.97
43312;BME280;30041;48.300;16.352;2022-07-05T02:35:40;99766.56;;;24.48;55.92
43312;BME280;30041;48.300;16.352;2022-07-05T02:38:05;99781.66;;;24.44;55.88
43312;BME280;30041;48.300;16.352;2022-07-05T02:40:31;99770.81;;;24.44;55.97
43312;BME280;30041;48.300;16.352;2022-07-05T02:42:56;99768.69;;;24.46;55.90
43312;BME280;30041;48.300;16.352;2022-07-05T02:45:22;99771.75;;;24.50;55.72
43312;BME280;30041;48.300;16.352;2022-07-05T02:47:47;99768.13;;;24.44;55.76
43312;BME280;30041;48.300;16.352;2022-07-05T02:50:12;99760.56;;;24.46;55.65
43312;BME280;30041;48.300;16.352;2022-07-05T02:52:38;99762.13;;;24.42;55.78
43312;BME280;30041;48.300;16.352;2022-07-05T02:55:04;99770.34;;;24.47;55.54
43312;BME280;30041;48.300;16.352;2022-07-05T02:57:30;99773.50;;;24.39;55.65
43312;BME280;30041;48.300;16.352;2022-07-05T02:59:56;99772.97;;;24.42;55.58
43312;BME280;30041;48.300;16.352;2022-07-05T03:02:23;99763.47;;;24.39;55.77
43312;BME280;30041;48.300;16.352;2022-07-05T03:04:49;99774.31;;;24.39;55.73
43312;BME280;30041;48.300;16.352;2022-07-05T03:07:14;99763.47;;;24.39;55.63
43312;BME280;30041;48.300;16.352;2022-07-05T03:09:40;99763.47;;;24.39;55.74
43312;BME280;30041;48.300;16.352;2022-07-05T03:12:06;99773.78;;;24.42;55.63
43312;BME280;30041;48.300;16.352;2022-07-05T03:14:32;99767.56;;;24.42;55.58
43312;BME280;30041;48.300;16.352;2022-07-05T03:16:57;99771.06;;;24.42;55.38
43312;BME280;30041;48.300;16.352;2022-07-05T03:19:22;99766.75;;;24.41;55.53
43312;BME280;30041;48.300;16.352;2022-07-05T03:21:48;99769.19;;;24.43;55.52
43312;BME280;30041;48.300;16.352;2022-07-05T03:24:13;99779.47;;;24.41;55.55
43312;BME280;30041;48.300;16.352;2022-07-05T03:26:39;99777.56;;;24.41;55.45
43312;BME280;30041;48.300;16.352;2022-07-05T03:29:04;99779.47;;;24.41;55.65
43312;BME280;30041;48.300;16.352;2022-07-05T03:31:30;99784.38;;;24.44;55.62
43312;BME280;30041;48.300;16.352;2022-07-05T03:33:57;99788.41;;;24.41;55.38
43312;BME280;30041;48.300;16.352;2022-07-05T03:36:23;99799.25;;;24.41;55.46
43312;BME280;30041;48.300;16.352;2022-07-05T03:38:48;99789.78;;;24.44;55.46
43312;BME280;30041;48.300;16.352;2022-07-05T03:41:14;99794.66;;;24.42;55.43
43312;BME280;30041;48.300;16.352;2022-07-05T03:43:39;99803.34;;;24.44;55.62
43312;BME280;30041;48.300;16.352;2022-07-05T03:46:05;99797.66;;;24.01;57.25
43312;BME280;30041;48.300;16.352;2022-07-05T03:48:30;99806.25;;;23.76;58.21
43312;BME280;30041;48.300;16.352;2022-07-05T03:50:56;99805.59;;;23.69;58.36
43312;BME280;30041;48.300;16.352;2022-07-05T03:53:21;99797.94;;;23.66;58.80
43312;BME280;30041;48.300;16.352;2022-07-05T03:55:47;99796.66;;;23.52;59.83
43312;BME280;30041;48.300;16.352;2022-07-05T03:58:12;99797.72;;;23.51;59.76
43312;BME280;30041;48.300;16.352;2022-07-05T04:00:38;99790.00;;;23.59;59.60
43312;BME280;30041;48.300;16.352;2022-07-05T04:03:03;99785.63;;;23.53;59.52
43312;BME280;30041;48.300;16.352;2022-07-05T04:05:29;99783.16;;;23.52;59.54
43312;BME280;30041;48.300;16.352;2022-07-05T04:07:55;99781.59;;;23.56;59.38
43312;BME280;30041;48.300;16.352;2022-07-05T04:10:22;99785.28;;;23.50;59.70
43312;BME280;30041;48.300;16.352;2022-07-05T04:12:48;99788.03;;;23.55;59.18
43312;BME280;30041;48.300;16.352;2022-07-05T04:15:14;99789.44;;;23.57;59.42
43312;BME280;30041;48.300;16.352;2022-07-05T04:17:52;99784.53;;;23.54;59.10
43312;BME280;30041;48.300;16.352;2022-07-05T04:20:17;99777.22;;;23.55;59.06
43312;BME280;30041;48.300;16.352;2022-07-05T04:22:43;99785.84;;;23.52;59.16
43312;BME280;30041;48.300;16.352;2022-07-05T04:25:12;99779.28;;;23.48;59.26
43312;BME280;30041;48.300;16.352;2022-07-05T04:27:38;99788.63;;;23.57;58.90
43312;BME280;30041;48.300;16.352;2022-07-05T04:30:03;99794.03;;;23.57;58.62
43312;BME280;30041;48.300;16.352;2022-07-05T04:32:29;99789.88;;;23.49;58.55
43312;BME280;30041;48.300;16.352;2022-07-05T04:34:54;99793.22;;;23.56;58.49
43312;BME280;30041;48.300;16.352;2022-07-05T04:37:20;99793.56;;;23.60;58.30
43312;BME280;30041;48.300;16.352;2022-07-05T04:39:45;99794.28;;;23.55;58.63
43312;BME280;30041;48.300;16.352;2022-07-05T04:42:10;99798.47;;;23.63;58.24
43312;BME280;30041;48.300;16.352;2022-07-05T04:44:36;99807.31;;;23.58;58.20
43312;BME280;30041;48.300;16.352;2022-07-05T04:47:01;99805.84;;;23.51;58.73
43312;BME280;30041;48.300;16.352;2022-07-05T04:49:27;99802.66;;;23.54;58.86
43312;BME280;30041;48.300;16.352;2022-07-05T04:51:52;99811.34;;;23.56;58.87
43312;BME280;30041;48.300;16.352;2022-07-05T04:54:18;99810.78;;;23.54;58.58
43312;BME280;30041;48.300;16.352;2022-07-05T04:56:43;99817.34;;;23.58;58.56
43312;BME280;30041;48.300;16.352;2022-07-05T04:59:08;99818.53;;;23.50;58.92
43312;BME280;30041;48.300;16.352;2022-07-05T05:01:34;99816.84;;;23.78;57.56
43312;BME280;30041;48.300;16.352;2022-07-05T05:03:59;99813.72;;;24.08;56.59
43312;BME280;30041;48.300;16.352;2022-07-05T05:06:25;99816.25;;;24.15;56.40
43312;BME280;30041;48.300;16.352;2022-07-05T05:08:50;99811.66;;;24.15;56.24
43312;BME280;30041;48.300;16.352;2022-07-05T05:11:15;99818.22;;;24.19;56.07
43312;BME280;30041;48.300;16.352;2022-07-05T05:13:41;99814.88;;;24.12;56.04
43312;BME280;30041;48.300;16.352;2022-07-05T05:16:06;99815.50;;;24.19;56.11
43312;BME280;30041;48.300;16.352;2022-07-05T05:18:32;99815.50;;;24.19;56.06
43312;BME280;30041;48.300;16.352;2022-07-05T05:20:57;99818.78;;;24.21;56.12
43312;BME280;30041;48.300;16.352;2022-07-05T05:23:22;99820.34;;;24.17;56.30
43312;BME280;30041;48.300;16.352;2022-07-05T05:25:48;99823.88;;;24.18;56.44
43312;BME280;30041;48.300;16.352;2022-07-05T05:28:14;99817.56;;;24.12;56.31
43312;BME280;30041;48.300;16.352;2022-07-05T05:30:39;99820.78;;;24.31;56.23
43312;BME280;30041;48.300;16.352;2022-07-05T05:33:05;99817.25;;;24.31;55.95
43312;BME280;30041;48.300;16.352;2022-07-05T05:35:30;99823.44;;;24.26;55.59
43312;BME280;30041;48.300;16.352;2022-07-05T05:37:56;99822.63;;;24.26;55.49
43312;BME280;30041;48.300;16.352;2022-07-05T05:40:23;99815.25;;;24.21;55.61
43312;BME280;30041;48.300;16.352;2022-07-05T05:42:49;99817.34;;;24.36;55.42
43312;BME280;30041;48.300;16.352;2022-07-05T05:45:15;99822.31;;;24.44;55.13
43312;BME280;30041;48.300;16.352;2022-07-05T05:47:52;99816.25;;;24.37;55.15
43312;BME280;30041;48.300;16.352;2022-07-05T05:50:22;99813.56;;;24.37;55.27
43312;BME280;30041;48.300;16.352;2022-07-05T05:52:49;99815.69;;;24.35;55.84
43312;BME280;30041;48.300;16.352;2022-07-05T05:55:15;99815.94;;;24.33;55.70
43312;BME280;30041;48.300;16.352;2022-07-05T05:57:40;99818.91;;;24.32;55.65
43312;BME280;30041;48.300;16.352;2022-07-05T06:00:07;99816.25;;;24.37;55.56
43312;BME280;30041;48.300;16.352;2022-07-05T06:02:33;99819.78;;;24.37;55.68
43312;BME280;30041;48.300;16.352;2022-07-05T06:04:58;99822.00;;;24.40;55.44
43312;BME280;30041;48.300;16.352;2022-07-05T06:07:23;99820.91;;;24.41;55.75
43312;BME280;30041;48.300;16.352;2022-07-05T06:09:49;99825.38;;;24.48;55.39
43312;BME280;30041;48.300;16.352;2022-07-05T06:12:14;99833.13;;;24.44;55.46
43312;BME280;30041;48.300;16.352;2022-07-05T06:14:40;99830.13;;;24.40;55.96
43312;BME280;30041;48.300;16.352;2022-07-05T06:17:05;99834.34;;;24.53;55.40
43312;BME280;30041;48.300;16.352;2022-07-05T06:19:31;99828.34;;;24.73;54.94
43312;BME280;30041;48.300;16.352;2022-07-05T06:21:56;99828.97;;;24.80;54.73
43312;BME280;30041;48.300;16.352;2022-07-05T06:24:21;99823.84;;;24.84;54.55
43312;BME280;30041;48.300;16.352;2022-07-05T06:26:47;99832.03;;;24.89;54.25
43312;BME280;30041;48.300;16.352;2022-07-05T06:29:12;99830.97;;;24.90;54.19
43312;BME280;30041;48.300;16.352;2022-07-05T06:31:38;99833.69;;;24.90;54.46
43312;BME280;30041;48.300;16.352;2022-07-05T06:34:03;99831.03;;;24.95;54.12
43312;BME280;30041;48.300;16.352;2022-07-05T06:36:29;99833.69;;;24.90;54.32
43312;BME280;30041;48.300;16.352;2022-07-05T06:38:54;99828.84;;;24.92;53.93
43312;BME280;30041;48.300;16.352;2022-07-05T06:41:20;99829.41;;;24.94;54.14
43312;BME280;30041;48.300;16.352;2022-07-05T06:43:45;99832.91;;;24.95;54.12
43312;BME280;30041;48.300;16.352;2022-07-05T06:46:10;99833.72;;;24.95;54.08
43312;BME280;30041;48.300;16.352;2022-07-05T06:48:36;99830.53;;;24.98;53.97
43312;BME280;30041;48.300;16.352;2022-07-05T06:51:01;99834.28;;;24.97;53.82
43312;BME280;30041;48.300;16.352;2022-07-05T06:53:26;99836.69;;;24.94;53.96
43312;BME280;30041;48.300;16.352;2022-07-05T06:55:54;99832.09;;;24.94;53.86
43312;BME280;30041;48.300;16.352;2022-07-05T06:58:20;99837.56;;;24.99;53.66
43312;BME280;30041;48.300;16.352;2022-07-05T07:00:45;99838.66;;;24.98;53.84
43312;BME280;30041;48.300;16.352;2022-07-05T07:03:11;99829.19;;;25.01;53.80
43312;BME280;30041;48.300;16.352;2022-07-05T07:05:36;99835.41;;;25.01;53.78
43312;BME280;30041;48.300;16.352;2022-07-05T07:08:02;99828.34;;;25.00;53.66
43312;BME280;30041;48.300;16.352;2022-07-05T07:10:27;99840.84;;;25.01;53.44
43312;BME280;30041;48.300;16.352;2022-07-05T07:12:53;99827.53;;;25.00;53.89
43312;BME280;30041;48.300;16.352;2022-07-05T07:15:18;99824.81;;;25.00;53.66
43312;BME280;30041;48.300;16.352;2022-07-05T07:17:44;99836.47;;;25.00;53.61
43312;BME280;30041;48.300;16.352;2022-07-05T07:20:10;99830.56;;;25.03;53.52
43312;BME280;30041;48.300;16.352;2022-07-05T07:22:35;99832.47;;;25.03;53.51
43312;BME280;30041;48.300;16.352;2022-07-05T07:25:01;99832.97;;;25.00;53.58
43312;BME280;30041;48.300;16.352;2022-07-05T07:27:26;99840.31;;;25.04;53.48
43312;BME280;30041;48.300;16.352;2022-07-05T07:29:51;99832.19;;;25.04;53.25
43312;BME280;30041;48.300;16.352;2022-07-05T07:32:17;99833.00;;;25.05;53.54
43312;BME280;30041;48.300;16.352;2022-07-05T07:34:42;99838.41;;;25.05;53.21
43312;BME280;30041;48.300;16.352;2022-07-05T07:37:08;99833.00;;;25.05;53.32
43312;BME280;30041;48.300;16.352;2022-07-05T07:39:35;99840.25;;;24.94;53.67
43312;BME280;30041;48.300;16.352;2022-07-05T07:42:01;99839.81;;;24.80;54.13
43312;BME280;30041;48.300;16.352;2022-07-05T07:44:26;99843.28;;;24.76;54.33
43312;BME280;30041;48.300;16.352;2022-07-05T07:46:52;99850.84;;;24.74;54.28
43312;BME280;30041;48.300;16.352;2022-07-05T07:49:17;99841.28;;;24.66;54.33
43312;BME280;30041;48.300;16.352;2022-07-05T07:51:43;99843.81;;;24.73;54.12
43312;BME280;30041;48.300;16.352;2022-07-05T07:54:09;99845.94;;;24.71;54.00
43312;BME280;30041;48.300;16.352;2022-07-05T07:56:34;99848.91;;;24.69;54.25
43312;BME280;30041;48.300;16.352;2022-07-05T07:59:00;99842.41;;;24.70;54.43
43312;BME280;30041;48.300;16.352;2022-07-05T08:01:25;99855.41;;;24.68;54.52
43312;BME280;30041;48.300;16.352;2022-07-05T08:03:51;99855.41;;;24.68;54.38
43312;BME280;30041;48.300;16.352;2022-07-05T08:06:17;99844.59;;;24.73;54.27
43312;BME280;30041;48.300;16.352;2022-07-05T08:08:43;99858.97;;;24.74;54.21
43312;BME280;30041;48.300;16.352;2022-07-05T08:11:09;99851.88;;;24.68;54.43
43312;BME280;30041;48.300;16.352;2022-07-05T08:13:36;99854.97;;;24.76;54.23
43312;BME280;30041;48.300;16.352;2022-07-05T08:16:02;99861.69;;;24.74;53.99
43312;BME280;30041;48.300;16.352;2022-07-05T08:18:28;99864.66;;;24.72;54.25
43312;BME280;30041;48.300;16.352;2022-07-05T08:20:55;99869.28;;;24.72;54.33
43312;BME280;30041;48.300;16.352;2022-07-05T08:23:20;99869.28;;;24.72;54.21
43312;BME280;30041;48.300;16.352;2022-07-05T08:25:45;99871.47;;;24.75;54.26
43312;BME280;30041;48.300;16.352;2022-07-05T08:28:11;99873.56;;;24.68;54.48
43312;BME280;30041;48.300;16.352;2022-07-05T08:30:36;99864.63;;;24.67;54.42
43312;BME280;30041;48.300;16.352;2022-07-05T08:33:04;99886.34;;;24.72;54.33
43312;BME280;30041;48.300;16.352;2022-07-05T08:35:29;99880.38;;;24.70;54.50
43312;BME280;30041;48.300;16.352;2022-07-05T08:37:55;99878.50;;;24.76;54.13
43312;BME280;30041;48.300;16.352;2022-07-05T08:40:22;99875.75;;;24.71;54.13
43312;BME280;30041;48.300;16.352;2022-07-05T08:42:51;99890.06;;;24.66;54.49
43312;BME280;30041;48.300;16.352;2022-07-05T08:45:21;99892.00;;;24.71;54.28
43312;BME280;30041;48.300;16.352;2022-07-05T08:47:47;99887.72;;;24.75;54.26
43312;BME280;30041;48.300;16.352;2022-07-05T08:50:13;99895.22;;;24.90;53.74
43312;BME280;30041;48.300;16.352;2022-07-05T08:52:39;99893.53;;;24.83;53.74
43312;BME280;30041;48.300;16.352;2022-07-05T08:55:05;99893.81;;;24.87;53.92
43312;BME280;30041;48.300;16.352;2022-07-05T08:57:32;99896.81;;;24.85;53.75
43312;BME280;30041;48.300;16.352;2022-07-05T08:59:58;99897.94;;;24.90;53.75
43312;BME280;30041;48.300;16.352;2022-07-05T09:02:23;99896.34;;;24.94;53.33
43312;BME280;30041;48.300;16.352;2022-07-05T09:04:49;99889.63;;;24.96;53.44
43312;BME280;30041;48.300;16.352;2022-07-05T09:07:17;99888.53;;;24.97;53.27
43312;BME280;30041;48.300;16.352;2022-07-05T09:09:43;99888.53;;;24.97;53.49
43312;BME280;30041;48.300;16.352;2022-07-05T09:12:12;99899.38;;;24.97;53.35
43312;BME280;30041;48.300;16.352;2022-07-05T09:14:38;99896.97;;;25.01;53.33
43312;BME280;30041;48.300;16.352;2022-07-05T09:17:04;99893.22;;;25.07;53.42
43312;BME280;30041;48.300;16.352;2022-07-05T09:19:29;99900.88;;;25.10;53.35
43312;BME280;30041;48.300;16.352;2022-07-05T09:22:04;99897.47;;;25.20;53.04
43312;BME280;30041;48.300;16.352;2022-07-05T09:24:31;99896.28;;;25.16;53.31
43312;BME280;30041;48.300;16.352;2022-07-05T09:27:05;99896.06;;;25.17;53.26
43312;BME280;30041;48.300;16.352;2022-07-05T09:29:33;99895.88;;;25.24;52.97
43312;BME280;30041;48.300;16.352;2022-07-05T09:31:58;99898.06;;;25.27;52.70
43312;BME280;30041;48.300;16.352;2022-07-05T09:34:24;99906.97;;;25.22;53.13
43312;BME280;30041;48.300;16.352;2022-07-05T09:36:59;99915.44;;;25.26;52.85
43312;BME280;30041;48.300;16.352;2022-07-05T09:42:15;99906.78;;;25.29;53.00
43312;BME280;30041;48.300;16.352;2022-07-05T09:47:12;99903.84;;;25.36;53.00
43312;BME280;30041;48.300;16.352;2022-07-05T09:49:45;99914.56;;;25.47;52.72
43312;BME280;30041;48.300;16.352;2022-07-05T09:55:10;99914.66;;;25.63;52.53
43312;BME280;30041;48.300;16.352;2022-07-05T09:57:40;99910.38;;;25.67;52.70
43312;BME280;30041;48.300;16.352;2022-07-05T10:00:11;99905.53;;;25.74;52.63
43312;BME280;30041;48.300;16.352;2022-07-05T10:02:41;99905.84;;;25.78;52.68
43312;BME280;30041;48.300;16.352;2022-07-05T10:05:11;99907.75;;;25.77;52.56
43312;BME280;30041;48.300;16.352;2022-07-05T10:07:40;99909.97;;;25.85;52.73
43312;BME280;30041;48.300;16.352;2022-07-05T10:10:16;99916.22;;;25.86;52.64
43312;BME280;30041;48.300;16.352;2022-07-05T10:12:43;99913.81;;;25.89;52.94
43312;BME280;30041;48.300;16.352;2022-07-05T10:15:16;99911.66;;;25.92;52.68
43312;BME280;30041;48.300;16.352;2022-07-05T10:17:44;99915.75;;;25.94;52.76
43312;BME280;30041;48.300;16.352;2022-07-05T10:20:25;99922.03;;;25.95;52.75
43312;BME280;30041;48.300;16.352;2022-07-05T10:22:53;99917.16;;;25.97;52.86
43312;BME280;30041;48.300;16.352;2022-07-05T10:25:21;99925.31;;;25.97;52.92
43312;BME280;30041;48.300;16.352;2022-07-05T10:27:47;99927.22;;;26.01;52.86
43312;BME280;30041;48.300;16.352;2022-07-05T10:30:14;99921.00;;;26.06;52.85
43312;BME280;30041;48.300;16.352;2022-07-05T10:32:41;99929.72;;;26.08;52.97
43312;BME280;30041;48.300;16.352;2022-07-05T10:35:07;99919.66;;;26.08;52.59
43312;BME280;30041;48.300;16.352;2022-07-05T10:37:33;99936.22;;;26.07;52.87
43312;BME280;30041;48.300;16.352;2022-07-05T10:40:01;99942.22;;;26.09;52.98
43312;BME280;30041;48.300;16.352;2022-07-05T10:42:35;99940.38;;;26.15;52.87
43312;BME280;30041;48.300;16.352;2022-07-05T10:45:01;99944.38;;;26.12;52.91
43312;BME280;30041;48.300;16.352;2022-07-05T10:47:27;99947.09;;;26.12;53.10
43312;BME280;30041;48.300;16.352;2022-07-05T10:50:01;99940.13;;;26.21;52.86
43312;BME280;30041;48.300;16.352;2022-07-05T10:52:27;99939.84;;;26.23;52.67
43312;BME280;30041;48.300;16.352;2022-07-05T10:55:17;99945.03;;;26.24;52.83
43312;BME280;30041;48.300;16.352;2022-07-05T10:57:43;99951.59;;;26.28;52.80
43312;BME280;30041;48.300;16.352;2022-07-05T11:00:10;99946.16;;;26.28;52.92
43312;BME280;30041;48.300;16.352;2022-07-05T11:02:39;99936.34;;;26.27;52.86
43312;BME280;30041;48.300;16.352;2022-07-05T11:05:04;99946.66;;;26.25;52.25
43312;BME280;30041;48.300;16.352;2022-07-05T11:07:58;99948.97;;;25.74;52.62
43312;BME280;30041;48.300;16.352;2022-07-05T11:10:24;99935.56;;;25.62;53.11
43312;BME280;30041;48.300;16.352;2022-07-05T11:12:50;99942.84;;;25.57;52.81
43312;BME280;30041;48.300;16.352;2022-07-05T11:15:16;99942.53;;;25.53;53.09
43312;BME280;30041;48.300;16.352;2022-07-05T11:17:41;99940.97;;;25.57;53.06
43312;BME280;30041;48.300;16.352;2022-07-05T11:20:16;99945.28;;;25.58;52.86
43312;BME280;30041;48.300;16.352;2022-07-05T11:23:04;99937.16;;;25.58;52.80
43312;BME280;30041;48.300;16.352;2022-07-05T11:25:32;99937.59;;;25.77;52.41
43312;BME280;30041;48.300;16.352;2022-07-05T11:28:21;99945.63;;;25.94;52.42
43312;BME280;30041;48.300;16.352;2022-07-05T11:30:49;99940.59;;;26.08;52.16
43312;BME280;30041;48.300;16.352;2022-07-05T11:33:30;99945.47;;;26.06;52.30
43312;BME280;30041;48.300;16.352;2022-07-05T11:35:56;99947.63;;;26.09;52.01
43312;BME280;30041;48.300;16.352;2022-07-05T11:38:23;99946.03;;;26.13;52.18
43312;BME280;30041;48.300;16.352;2022-07-05T11:40:48;99940.38;;;26.15;52.22
43312;BME280;30041;48.300;16.352;2022-07-05T11:43:14;99938.19;;;26.17;52.28
43312;BME280;30041;48.300;16.352;2022-07-05T11:45:40;99935.75;;;26.20;52.05
43312;BME280;30041;48.300;16.352;2022-07-05T11:48:06;99930.09;;;26.22;51.91
43312;BME280;30041;48.300;16.352;2022-07-05T11:50:39;99934.75;;;26.32;51.75
43312;BME280;30041;48.300;16.352;2022-07-05T11:53:05;99933.63;;;26.27;51.90
43312;BME280;30041;48.300;16.352;2022-07-05T11:55:31;99924.69;;;26.32;52.03
43312;BME280;30041;48.300;16.352;2022-07-05T11:57:57;99928.81;;;26.35;51.91
43312;BME280;30041;48.300;16.352;2022-07-05T12:00:31;99928.50;;;26.31;52.06
43312;BME280;30041;48.300;16.352;2022-07-05T12:02:58;99922.81;;;26.33;52.12
43312;BME280;30041;48.300;16.352;2022-07-05T12:05:28;99917.09;;;26.34;52.04
43312;BME280;30041;48.300;16.352;2022-07-05T12:07:54;99915.75;;;26.37;51.95
43312;BME280;30041;48.300;16.352;2022-07-05T12:10:20;99916.59;;;26.37;51.89
43312;BME280;30041;48.300;16.352;2022-07-05T12:12:46;99911.97;;;26.43;51.86
43312;BME280;30041;48.300;16.352;2022-07-05T12:15:16;99901.09;;;26.43;51.71
43312;BME280;30041;48.300;16.352;2022-07-05T12:17:47;99906.84;;;26.46;51.85
43312;BME280;30041;48.300;16.352;2022-07-05T12:20:15;99905.50;;;26.49;51.93
43312;BME280;30041;48.300;16.352;2022-07-05T12:22:45;99907.66;;;26.52;51.75
43312;BME280;30041;48.300;16.352;2022-07-05T12:25:15;99913.91;;;26.47;51.70
43312;BME280;30041;48.300;16.352;2022-07-05T12:27:42;99909.03;;;26.49;51.82
43312;BME280;30041;48.300;16.352;2022-07-05T12:30:12;99907.66;;;26.52;51.88
43312;BME280;30041;48.300;16.352;2022-07-05T12:33:03;99903.56;;;26.39;51.66
43312;BME280;30041;48.300;16.352;2022-07-05T12:35:40;99913.00;;;26.32;51.85
43312;BME280;30041;48.300;16.352;2022-07-05T12:38:08;99903.22;;;26.30;52.22
43312;BME280;30041;48.300;16.352;2022-07-05T12:40:36;99902.13;;;26.32;51.83
43312;BME280;30041;48.300;16.352;2022-07-05T12:43:11;99906.22;;;26.29;52.42
43312;BME280;30041;48.300;16.352;2022-07-05T12:45:59;99903.19;;;26.25;52.87
43312;BME280;30041;48.300;16.352;2022-07-05T12:48:32;99899.72;;;26.35;52.77
43312;BME280;30041;48.300;16.352;2022-07-05T12:50:58;99896.72;;;26.32;52.79
43312;BME280;30041;48.300;16.352;2022-07-05T12:53:25;99905.47;;;26.44;52.59
43312;BME280;30041;48.300;16.352;2022-07-05T12:56:00;99900.28;;;26.37;53.22
43312;BME280;30041;48.300;16.352;2022-07-05T12:58:26;99900.44;;;26.15;53.45